Accueil
METAR-TAF:

METAR-TAF

Aéroports :

Niamey, Niger

Aéroport international Diori Hamani

latitude: 13-29N, longitude: 002-10E, altitude: 223 m

Observation

Le bulletin a été fait il y a 46 minutes, à 12:00 UTC
Vent 7 kt de est, variant entre nord/nord-est et sud-est
Température 37°C
Humidité 10%
Pression 1013 hPa
Visibilité: 6000 m

METAR: DRRN 181200Z 08007KT 020V130 6000 NSC 37/01 Q1013

Heure: 13:46 (12:46 UTC)

Prévision

Le bulletin a été fait il y a 1 heure et 46 minutes, à 11:00 UTC
Prévision valable du 18 à 12 UTC au 19 à 18 UTC
Vent 10 kt de est/nord-est
Visibilité: 6000 m
Temporairement
du 18 à 18 UTC au 18 à 21 UTC
Visibilité: 4000 m
poussière généralisée
Temporairement
du 19 à 06 UTC au 19 à 08 UTC
Visibilité: 4000 m
poussière généralisée

TAF: DRRN 181100Z 1812/1918 06010KT 6000 NSC TEMPO 1818/1821 4000 DU TEMPO 1906/1908 4000 DU

Observations et prévisions météorologiques de plus de 4000 aéroports (messages METAR et TAF).

Les stations disponibles sont représentées par des disques jaunes et rouges sur la carte.

Passer la souris dessus pour voir le nom de la station.

Cliquer dessus pour voir les observations et prévisions météorologiques.

Pour changer de carte: cliquez sur les boutons verts avec une croix noire pour zoomer, sur le bouton vert avec un tiret pour effectuer un zoom arrière, ou sur les flèches vertes pour les cartes adjacentes.


METAR-TAF: